createdAt,value
2023-03-07T00:09:53.329Z,13.36
2023-03-07T00:15:00.590Z,12.99
2023-03-07T00:20:06.898Z,12.50
2023-03-07T00:25:13.173Z,12.00
2023-03-07T00:30:19.322Z,11.52
2023-03-07T00:35:25.525Z,11.28
2023-03-07T00:40:31.620Z,10.90
2023-03-07T00:45:37.910Z,10.63
2023-03-07T00:50:44.081Z,9.91
2023-03-07T00:55:50.321Z,9.15
2023-03-07T01:00:56.550Z,9.21
2023-03-07T01:06:02.700Z,8.67
2023-03-07T01:11:08.973Z,8.73
2023-03-07T01:16:15.300Z,8.75
2023-03-07T01:21:21.502Z,8.14
2023-03-07T01:26:27.808Z,7.63
2023-03-07T01:31:33.972Z,7.63
2023-03-07T01:36:40.145Z,7.70
2023-03-07T01:41:46.275Z,7.16
2023-03-07T01:46:52.966Z,7.56
2023-03-07T01:51:59.001Z,6.79
2023-03-07T01:57:05.326Z,6.16
2023-03-07T02:02:11.427Z,6.25
2023-03-07T02:07:17.666Z,5.94
2023-03-07T02:12:23.805Z,5.69
2023-03-07T02:17:30.054Z,4.95
2023-03-07T02:22:36.232Z,4.62
2023-03-07T02:27:42.459Z,4.60
2023-03-07T02:32:48.658Z,3.99
2023-03-07T02:37:54.935Z,4.12
2023-03-07T02:43:01.012Z,3.52
2023-03-07T02:48:07.159Z,3.06
2023-03-07T02:53:13.241Z,3.13
2023-03-07T02:58:19.465Z,2.72
2023-03-07T03:03:25.717Z,2.60
2023-03-07T03:08:32.055Z,2.67
2023-03-07T03:13:39.072Z,2.35
2023-03-07T03:18:43.934Z,2.19
2023-03-07T03:23:50.129Z,2.01
2023-03-07T03:28:56.349Z,2.14
2023-03-07T03:34:02.488Z,1.78
2023-03-07T03:39:08.673Z,1.76
2023-03-07T03:44:14.767Z,1.85
2023-03-07T03:49:21.048Z,1.71
2023-03-07T03:54:27.220Z,1.73
2023-03-07T03:59:33.559Z,2.07
2023-03-07T04:04:39.666Z,1.68
2023-03-07T04:09:45.922Z,1.53
2023-03-07T04:14:52.021Z,1.51
2023-03-07T04:19:58.436Z,1.65
2023-03-07T04:25:04.639Z,1.62
2023-03-07T04:30:11.041Z,1.52
2023-03-07T04:35:17.128Z,1.49
2023-03-07T04:40:23.382Z,1.72
2023-03-07T04:45:29.516Z,1.78
2023-03-07T04:50:35.737Z,1.61
2023-03-07T04:55:41.904Z,1.46
2023-03-07T05:00:48.199Z,1.66
2023-03-07T05:05:54.317Z,1.81
2023-03-07T05:11:00.556Z,1.57
2023-03-07T05:16:06.756Z,1.53
2023-03-07T05:21:12.913Z,1.61
2023-03-07T05:26:19.058Z,1.48
2023-03-07T05:31:26.133Z,1.48
2023-03-07T05:36:32.249Z,1.94
2023-03-07T05:41:38.634Z,1.53
2023-03-07T05:46:44.719Z,1.85
2023-03-07T05:51:51.091Z,1.53
2023-03-07T05:56:57.209Z,1.40
2023-03-07T06:02:03.339Z,1.65
2023-03-07T06:07:09.476Z,1.64
2023-03-07T06:12:15.714Z,1.49
2023-03-07T06:17:21.851Z,1.85
2023-03-07T06:22:28.038Z,1.85
2023-03-07T06:27:34.179Z,1.58
2023-03-07T06:32:40.516Z,1.85
2023-03-07T06:37:46.553Z,1.53
2023-03-07T06:42:52.775Z,1.76
2023-03-07T06:47:58.851Z,1.51
2023-03-07T06:53:05.885Z,1.78
2023-03-07T06:58:12.009Z,1.84
2023-03-07T07:03:18.355Z,1.68
2023-03-07T07:08:24.349Z,1.64
2023-03-07T07:13:30.590Z,1.54
2023-03-07T07:18:36.674Z,2.05
2023-03-07T07:23:42.885Z,1.75
2023-03-07T07:28:49.011Z,1.44
2023-03-07T07:33:55.548Z,1.65
2023-03-07T07:39:01.611Z,1.66
2023-03-07T07:44:07.808Z,1.66
2023-03-07T07:49:13.872Z,1.59
2023-03-07T07:54:20.024Z,1.74
2023-03-07T07:59:26.223Z,1.76
2023-03-07T08:04:32.376Z,1.58
2023-03-07T08:09:38.491Z,1.58
2023-03-07T08:14:44.700Z,1.66
2023-03-07T08:19:50.789Z,1.59
2023-03-07T08:24:57.102Z,1.48
2023-03-07T08:30:03.201Z,1.77
2023-03-07T08:35:09.377Z,1.82
2023-03-07T08:40:15.513Z,1.68
2023-03-07T08:45:22.879Z,1.42
2023-03-07T08:50:27.598Z,1.42
2023-03-07T08:55:33.745Z,1.52
2023-03-07T09:00:39.822Z,1.86
2023-03-07T09:05:46.083Z,1.56
2023-03-07T09:10:52.244Z,1.82
2023-03-07T09:15:58.622Z,1.41
2023-03-07T09:21:04.720Z,1.40
2023-03-07T09:26:10.936Z,1.46
2023-03-07T09:31:17.195Z,1.51
2023-03-07T09:36:23.339Z,1.58
2023-03-07T09:41:29.426Z,1.71
2023-03-07T09:46:35.722Z,1.63
2023-03-07T09:51:42.709Z,1.84
2023-03-07T09:56:49.000Z,1.40
2023-03-07T10:01:55.194Z,1.37
2023-03-07T10:07:01.374Z,1.73
2023-03-07T10:12:07.461Z,1.66
2023-03-07T10:17:13.631Z,1.46
2023-03-07T10:22:19.822Z,1.57
2023-03-07T10:27:25.969Z,1.97
2023-03-07T10:32:32.117Z,1.68
2023-03-07T10:37:38.318Z,1.53
2023-03-07T10:42:44.400Z,1.56
2023-03-07T10:47:50.657Z,1.82
2023-03-07T10:52:57.568Z,1.63
2023-03-07T10:58:03.920Z,1.72
2023-03-07T11:04:06.137Z,1.45
2023-03-07T11:09:12.380Z,1.97
2023-03-07T11:14:19.001Z,2.39
2023-03-07T11:19:24.227Z,1.65
2023-03-07T11:24:30.365Z,1.52
2023-03-07T11:29:36.579Z,1.38
2023-03-07T11:34:43.064Z,1.89
2023-03-07T11:39:49.241Z,1.53
2023-03-07T11:44:55.324Z,1.86
2023-03-07T11:50:01.603Z,1.46
2023-03-07T11:55:07.777Z,1.63
2023-03-07T12:00:14.226Z,1.56
2023-03-07T12:05:20.406Z,1.48
2023-03-07T12:10:26.550Z,1.64
2023-03-07T12:15:32.639Z,1.59
2023-03-07T12:20:38.978Z,1.56
2023-03-07T12:25:45.097Z,1.43
2023-03-07T12:30:51.296Z,1.45
2023-03-07T12:35:57.498Z,1.41
2023-03-07T12:41:03.677Z,1.65
2023-03-07T12:46:09.751Z,1.41
2023-03-07T12:51:15.890Z,1.45
2023-03-07T12:56:21.966Z,1.80
2023-03-07T13:01:28.285Z,1.39
2023-03-07T13:06:34.392Z,1.29
2023-03-07T13:11:40.897Z,1.43
2023-03-07T13:16:47.011Z,1.36
2023-03-07T13:21:53.249Z,1.42
2023-03-07T13:26:59.353Z,1.34
2023-03-07T13:32:05.882Z,1.38
2023-03-07T13:37:11.909Z,1.28
2023-03-07T13:42:18.129Z,1.26
2023-03-07T13:47:24.245Z,1.09
2023-03-07T13:52:30.453Z,1.33
2023-03-07T13:57:36.554Z,1.28
2023-03-07T14:02:44.006Z,1.17
2023-03-07T14:07:48.537Z,1.33
2023-03-07T14:12:54.959Z,1.26
2023-03-07T14:18:01.114Z,1.19
2023-03-07T14:23:07.327Z,1.23
2023-03-07T14:28:13.475Z,1.21
2023-03-07T14:33:19.649Z,1.58
2023-03-07T14:38:25.749Z,1.30
2023-03-07T14:43:31.983Z,1.41
2023-03-07T14:48:38.112Z,1.16
2023-03-07T14:53:44.857Z,1.42
2023-03-07T14:58:51.159Z,1.36
2023-03-07T15:03:57.299Z,1.29
2023-03-07T15:09:03.393Z,1.20
2023-03-07T15:14:09.564Z,1.12
2023-03-07T15:19:16.986Z,1.49
2023-03-07T15:24:23.231Z,1.28
2023-03-07T15:29:29.396Z,1.23
2023-03-07T15:34:35.715Z,1.31
2023-03-07T15:39:41.854Z,1.11
2023-03-07T15:44:48.129Z,1.05
2023-03-07T15:49:54.238Z,1.17
2023-03-07T15:55:00.547Z,1.20
2023-03-07T16:00:06.956Z,1.09
2023-03-07T16:05:13.127Z,1.10
2023-03-07T16:10:19.297Z,1.14
2023-03-07T16:15:25.563Z,1.17
2023-03-07T16:20:31.630Z,1.21
2023-03-07T16:25:37.852Z,1.21
2023-03-07T16:30:44.062Z,1.18
2023-03-07T16:35:50.464Z,1.48
2023-03-07T16:40:56.497Z,1.24
2023-03-07T16:46:02.867Z,1.66
2023-03-07T16:51:09.048Z,1.34
2023-03-07T16:56:15.245Z,1.59
2023-03-07T17:01:21.461Z,1.71
2023-03-07T17:06:38.467Z,1.56
2023-03-07T17:11:33.579Z,1.50
2023-03-07T17:16:39.769Z,1.24
2023-03-07T17:21:45.935Z,1.66
2023-03-07T17:26:52.249Z,1.24
2023-03-07T17:31:58.461Z,1.33
2023-03-07T17:37:04.687Z,1.64
2023-03-07T17:42:10.790Z,1.77
2023-03-07T17:47:17.053Z,1.73
2023-03-07T17:52:26.304Z,1.79
2023-03-07T17:57:32.641Z,1.66
2023-03-07T18:02:38.833Z,1.49
2023-03-07T18:07:45.054Z,1.61
2023-03-07T18:12:51.163Z,1.31
2023-03-07T18:17:57.512Z,1.42
2023-03-07T18:23:03.680Z,1.45
2023-03-07T18:28:09.907Z,1.62
2023-03-07T18:33:16.033Z,1.50
2023-03-07T18:38:22.284Z,1.38
2023-03-07T18:43:28.456Z,1.46
2023-03-07T18:48:34.846Z,1.53
2023-03-07T18:53:40.972Z,1.55
2023-03-07T18:58:47.170Z,2.21
2023-03-07T19:03:53.372Z,2.33
2023-03-07T19:08:59.654Z,2.05
2023-03-07T19:14:05.809Z,5.50
2023-03-07T19:19:12.150Z,3.14
2023-03-07T19:24:18.358Z,2.11
2023-03-07T19:29:24.754Z,2.30
2023-03-07T19:34:30.852Z,2.64
2023-03-07T19:39:37.106Z,2.50
2023-03-07T19:44:43.255Z,3.01
2023-03-07T19:49:49.433Z,2.53
2023-03-07T19:54:55.635Z,2.42
2023-03-07T20:00:02.276Z,2.62
2023-03-07T20:05:08.341Z,1.87
2023-03-07T20:10:14.534Z,1.86
2023-03-07T20:15:20.803Z,2.15
2023-03-07T20:20:27.038Z,1.91
2023-03-07T20:25:33.122Z,1.89
2023-03-07T20:30:39.627Z,2.25
2023-03-07T20:35:45.608Z,2.21
2023-03-07T20:40:51.952Z,1.62
2023-03-07T20:45:58.173Z,1.73
2023-03-07T20:51:04.494Z,1.92
2023-03-07T20:56:10.583Z,1.67
2023-03-07T21:01:17.012Z,1.97
2023-03-07T21:06:23.094Z,1.77
2023-03-07T21:11:29.419Z,1.71
2023-03-07T21:16:35.626Z,1.93
2023-03-07T21:21:41.856Z,2.00
2023-03-07T21:26:48.020Z,2.44
2023-03-07T21:31:54.369Z,3.03
2023-03-07T21:37:00.490Z,2.65
2023-03-07T21:42:06.708Z,2.53
2023-03-07T21:47:12.819Z,2.12
2023-03-07T21:52:19.092Z,1.92
2023-03-07T21:57:25.213Z,1.72
2023-03-07T22:02:31.356Z,1.72
2023-03-07T22:07:37.433Z,1.81
2023-03-07T22:12:43.783Z,1.87
2023-03-07T22:17:50.214Z,2.30
2023-03-07T22:22:56.410Z,2.21
2023-03-07T22:28:02.487Z,1.99
2023-03-07T22:33:08.715Z,2.18
2023-03-07T22:38:16.805Z,2.08
2023-03-07T22:43:20.679Z,2.24
2023-03-07T22:48:26.744Z,2.28
2023-03-07T22:53:33.005Z,2.14
2023-03-07T22:58:39.189Z,2.38
2023-03-07T23:03:45.364Z,2.70
2023-03-07T23:08:51.836Z,2.46
2023-03-07T23:13:58.076Z,2.13
2023-03-07T23:19:04.221Z,3.10
2023-03-07T23:24:10.444Z,1.95
2023-03-07T23:29:16.548Z,1.88
2023-03-07T23:34:22.891Z,1.90
2023-03-07T23:39:28.966Z,1.90
2023-03-07T23:44:35.173Z,2.03
2023-03-07T23:49:41.320Z,2.72
2023-03-07T23:54:47.512Z,1.93
2023-03-07T23:59:53.621Z,1.95
